Time;durP1;ratioP1;P1;durP2;ratioP2;P2;SDS_P1;SDS_P2;PMS_P1;PMS_P2;Temp;Humidity;BMP_temperature;BMP_pressure;BME280_temperature;BME280_humidity;BME280_pressure;Samples;Min_cycle;Max_cycle;Signal;HPM_P1;HPM_P2
2022/10/17 00:00:37;;;;;;;;;;;13.10;99.90;;;;;;5035377;28;20011;-70
2022/10/17 00:03:03;;;;;;;;;;;13.00;99.90;;;;;;5031829;28;20367;-70
2022/10/17 00:05:28;;;;;;;;;;;13.10;99.90;;;;;;5032519;28;20522;-70
2022/10/17 00:07:54;;;;;;;;;;;12.90;99.90;;;;;;5047812;28;19920;-70
2022/10/17 00:10:20;;;;;;;;;;;13.20;99.90;;;;;;5052376;28;19923;-70
2022/10/17 00:12:45;;;;;;;;;;;13.10;99.90;;;;;;5048213;28;20389;-69
2022/10/17 00:15:14;;;;;;;;;;;13.10;99.90;;;;;;5031096;28;19921;-69
2022/10/17 00:17:40;;;;;;;;;;;13.70;99.90;;;;;;5036178;28;19916;-69
2022/10/17 00:20:06;;;;;;;;;;;13.10;99.90;;;;;;5050639;28;19916;-69
2022/10/17 00:22:32;;;;;;;;;;;13.10;99.90;;;;;;5034774;28;19928;-69
2022/10/17 00:24:57;;;;;;;;;;;13.10;99.90;;;;;;5047325;28;19928;-69
2022/10/17 00:27:23;;;;;;;;;;;13.60;99.90;;;;;;5031473;28;19917;-69
2022/10/17 00:29:49;;;;;;;;;;;13.00;99.90;;;;;;5032533;28;20489;-70
2022/10/17 00:32:14;;;;;;;;;;;13.10;99.90;;;;;;5031278;28;19917;-70
2022/10/17 00:34:40;;;;;;;;;;;13.00;99.90;;;;;;5014564;28;20248;-70
2022/10/17 00:37:05;;;;;;;;;;;13.10;99.90;;;;;;5014510;28;19976;-70
2022/10/17 00:39:31;;;;;;;;;;;13.00;99.90;;;;;;5031117;28;19920;-70
2022/10/17 00:41:56;;;;;;;;;;;13.20;99.90;;;;;;5043953;28;19917;-70
2022/10/17 00:44:27;;;;;;;;;;;13.00;99.90;;;;;;5051830;28;19920;-70
2022/10/17 00:46:54;;;;;;;;;;;13.10;99.90;;;;;;5051832;28;20371;-70
2022/10/17 00:49:21;;;;;;;;;;;13.00;99.90;;;;;;5049833;28;19931;-70
2022/10/17 00:51:49;;;;;;;;;;;13.30;99.90;;;;;;5045525;28;20379;-70
2022/10/17 00:54:16;;;;;;;;;;;13.10;99.90;;;;;;5030546;28;20000;-70
2022/10/17 00:56:42;;;;;;;;;;;13.30;99.90;;;;;;5047820;28;20409;-70
2022/10/17 00:59:09;;;;;;;;;;;13.00;99.90;;;;;;5050865;28;20341;-70
2022/10/17 01:01:35;;;;;;;;;;;13.20;99.90;;;;;;5050368;28;19940;-70
2022/10/17 01:04:00;;;;;;;;;;;13.10;99.90;;;;;;5051741;28;20378;-71
2022/10/17 01:06:26;;;;;;;;;;;13.20;99.90;;;;;;5046190;28;19917;-70
2022/10/17 01:08:51;;;;;;;;;;;13.20;99.90;;;;;;5038753;28;19925;-70
2022/10/17 01:11:27;;;;;;;;;;;13.10;99.90;;;;;;5031749;28;19917;-70
2022/10/17 01:13:57;;;;;;;;;;;12.90;99.90;;;;;;5030804;28;20573;-70
2022/10/17 01:16:39;;;;;;;;;;;13.00;99.90;;;;;;5030752;28;19932;-70
2022/10/17 01:19:25;;;;;;;;;;;13.10;99.90;;;;;;5037956;28;19924;-70
2022/10/17 01:21:57;;;;;;;;;;;13.20;99.90;;;;;;5050002;28;20380;-70
2022/10/17 01:24:29;;;;;;;;;;;13.10;99.90;;;;;;5035522;28;19975;-71
2022/10/17 01:26:59;;;;;;;;;;;13.20;99.90;;;;;;5046275;28;19916;-70
2022/10/17 01:29:24;;;;;;;;;;;13.30;99.90;;;;;;5031838;28;19917;-70
2022/10/17 01:32:09;;;;;;;;;;;13.10;99.90;;;;;;5031030;28;20000;-71
2022/10/17 01:35:00;;;;;;;;;;;13.10;99.90;;;;;;5030816;28;19917;-70
2022/10/17 01:37:32;;;;;;;;;;;13.10;99.90;;;;;;5030729;28;19921;-71
2022/10/17 01:40:07;;;;;;;;;;;13.20;99.90;;;;;;5030309;28;19924;-71
2022/10/17 01:42:36;;;;;;;;;;;13.40;99.90;;;;;;5037972;28;20000;-70
2022/10/17 01:45:05;;;;;;;;;;;13.30;99.90;;;;;;5046080;28;20414;-71
2022/10/17 01:47:31;;;;;;;;;;;13.30;99.90;;;;;;5051479;28;20338;-71
2022/10/17 01:50:02;;;;;;;;;;;13.20;99.90;;;;;;5034513;28;19917;-71
2022/10/17 01:52:30;;;;;;;;;;;13.00;99.90;;;;;;5040831;28;20466;-71
2022/10/17 01:54:58;;;;;;;;;;;13.30;99.90;;;;;;5032757;28;20310;-70
2022/10/17 01:57:34;;;;;;;;;;;13.20;99.90;;;;;;5050378;28;20321;-70
2022/10/17 02:00:01;;;;;;;;;;;13.10;99.90;;;;;;5031274;28;19917;-70
2022/10/17 02:02:27;;;;;;;;;;;13.10;99.90;;;;;;5036498;28;19942;-70
2022/10/17 02:04:53;;;;;;;;;;;13.20;99.90;;;;;;5053079;28;19960;-71
2022/10/17 02:07:19;;;;;;;;;;;13.20;99.90;;;;;;5053270;28;19924;-71
2022/10/17 02:09:44;;;;;;;;;;;13.00;99.90;;;;;;5033762;28;19917;-71
2022/10/17 02:12:10;;;;;;;;;;;12.80;99.90;;;;;;5036286;28;20379;-73
2022/10/17 02:14:51;;;;;;;;;;;13.00;99.90;;;;;;5033688;28;19964;-73
2022/10/17 02:17:29;;;;;;;;;;;13.10;99.90;;;;;;5046159;28;19921;-73
2022/10/17 02:20:04;;;;;;;;;;;12.90;99.90;;;;;;5036553;28;19920;-72
2022/10/17 02:22:48;;;;;;;;;;;13.00;99.90;;;;;;5054327;28;19962;-72
2022/10/17 02:25:22;;;;;;;;;;;13.00;99.90;;;;;;5047173;28;19924;-72
2022/10/17 02:28:06;;;;;;;;;;;12.90;99.90;;;;;;5052711;28;19916;-72
2022/10/17 02:30:35;;;;;;;;;;;12.90;99.90;;;;;;5052885;28;19970;-72
2022/10/17 02:33:12;;;;;;;;;;;13.10;99.90;;;;;;5036598;28;19917;-72
2022/10/17 02:35:40;;;;;;;;;;;13.00;99.90;;;;;;5053067;28;19924;-72
2022/10/17 02:38:07;;;;;;;;;;;14.00;99.90;;;;;;5053813;28;20321;-72
2022/10/17 02:40:33;;;;;;;;;;;13.10;99.90;;;;;;5033525;28;19928;-72
2022/10/17 02:43:02;;;;;;;;;;;13.60;99.90;;;;;;5033117;28;19925;-72
2022/10/17 02:45:28;;;;;;;;;;;13.30;99.90;;;;;;5034135;28;19932;-72
2022/10/17 02:48:05;;;;;;;;;;;13.00;99.90;;;;;;5038613;28;19917;-73
2022/10/17 02:50:40;;;;;;;;;;;13.00;99.90;;;;;;5038801;28;20326;-72
2022/10/17 02:53:09;;;;;;;;;;;13.00;99.90;;;;;;5040691;28;19916;-72
2022/10/17 02:55:38;;;;;;;;;;;13.10;99.90;;;;;;5047524;28;19921;-72
2022/10/17 02:58:18;;;;;;;;;;;12.90;99.90;;;;;;5033054;28;20329;-72
2022/10/17 03:00:44;;;;;;;;;;;12.90;99.90;;;;;;5038661;28;19917;-72
2022/10/17 03:03:23;;;;;;;;;;;13.10;99.90;;;;;;5053728;28;20016;-71
2022/10/17 03:05:48;;;;;;;;;;;13.00;99.90;;;;;;5053200;28;20011;-72
2022/10/17 03:08:14;;;;;;;;;;;12.70;99.90;;;;;;5026870;28;20011;-73
2022/10/17 03:10:39;;;;;;;;;;;12.90;99.90;;;;;;5036013;28;19916;-72
2022/10/17 03:13:05;;;;;;;;;;;13.10;99.90;;;;;;5053778;28;19924;-72
2022/10/17 03:15:30;;;;;;;;;;;13.00;99.90;;;;;;5051391;28;19920;-73
2022/10/17 03:17:56;;;;;;;;;;;13.90;99.90;;;;;;5051957;28;19920;-72
2022/10/17 03:20:21;;;;;;;;;;;13.00;99.90;;;;;;5051072;28;19974;-72
2022/10/17 03:22:47;;;;;;;;;;;13.00;99.90;;;;;;5032446;28;20321;-73
2022/10/17 03:25:12;;;;;;;;;;;12.90;99.90;;;;;;5015564;28;19924;-72
2022/10/17 03:27:38;;;;;;;;;;;13.00;99.90;;;;;;5036023;28;19968;-73
2022/10/17 03:30:03;;;;;;;;;;;12.70;99.90;;;;;;5032115;28;19975;-73
2022/10/17 03:32:31;;;;;;;;;;;12.90;99.90;;;;;;5032395;28;20383;-72
2022/10/17 03:34:57;;;;;;;;;;;13.00;99.90;;;;;;5031635;28;19925;-72
2022/10/17 03:37:22;;;;;;;;;;;12.90;99.90;;;;;;5034301;28;19928;-73
2022/10/17 03:39:48;;;;;;;;;;;12.70;99.90;;;;;;5032175;28;19917;-72
2022/10/17 03:42:13;;;;;;;;;;;13.10;99.90;;;;;;5032065;28;19917;-73
2022/10/17 03:44:39;;;;;;;;;;;13.00;99.90;;;;;;5023639;28;19931;-72
2022/10/17 03:47:04;;;;;;;;;;;13.70;99.90;;;;;;5050147;28;19966;-73
2022/10/17 03:49:30;;;;;;;;;;;12.90;99.90;;;;;;5035240;28;19921;-72
2022/10/17 03:51:55;;;;;;;;;;;13.00;99.90;;;;;;5031839;28;19956;-73
2022/10/17 03:54:21;;;;;;;;;;;13.10;99.90;;;;;;5051126;28;19939;-73
2022/10/17 03:56:46;;;;;;;;;;;13.20;99.90;;;;;;5051280;28;19994;-73
2022/10/17 03:59:13;;;;;;;;;;;12.90;99.90;;;;;;5052551;28;20340;-71
2022/10/17 04:01:38;;;;;;;;;;;13.00;99.90;;;;;;5051609;28;19917;-72
2022/10/17 04:04:04;;;;;;;;;;;13.20;99.90;;;;;;5051473;28;19928;-72
2022/10/17 04:06:29;;;;;;;;;;;12.90;99.90;;;;;;5052241;28;20378;-72
2022/10/17 04:08:55;;;;;;;;;;;13.00;99.90;;;;;;5051144;28;20432;-72
2022/10/17 04:11:21;;;;;;;;;;;13.00;99.90;;;;;;5051552;28;19917;-73
2022/10/17 04:13:46;;;;;;;;;;;13.40;99.90;;;;;;5034982;28;20015;-73
2022/10/17 04:16:13;;;;;;;;;;;13.30;99.90;;;;;;5032355;28;19924;-72
2022/10/17 04:18:39;;;;;;;;;;;13.10;99.90;;;;;;5033488;28;19917;-73
2022/10/17 04:21:05;;;;;;;;;;;13.50;99.90;;;;;;5033890;28;19925;-73
2022/10/17 04:23:31;;;;;;;;;;;13.10;99.90;;;;;;5051304;28;20015;-73
2022/10/17 04:25:58;;;;;;;;;;;13.10;99.90;;;;;;5051486;28;19970;-72
2022/10/17 04:28:24;;;;;;;;;;;13.80;99.90;;;;;;5043213;28;19920;-72
2022/10/17 04:30:56;;;;;;;;;;;13.40;99.90;;;;;;5031150;28;20710;-73
2022/10/17 04:33:22;;;;;;;;;;;13.40;99.90;;;;;;5032300;28;19923;-73
2022/10/17 04:36:14;;;;;;;;;;;13.60;99.90;;;;;;5014172;28;19921;-72
2022/10/17 04:38:39;;;;;;;;;;;13.50;99.90;;;;;;5027109;28;19970;-72
2022/10/17 04:41:06;;;;;;;;;;;13.50;99.90;;;;;;5032026;28;20007;-71
2022/10/17 04:43:33;;;;;;;;;;;13.50;99.90;;;;;;5032177;28;19917;-71
2022/10/17 04:46:00;;;;;;;;;;;13.60;99.90;;;;;;5044618;28;19917;-71
2022/10/17 04:48:26;;;;;;;;;;;13.60;99.90;;;;;;5050395;28;19917;-71
2022/10/17 04:50:56;;;;;;;;;;;13.60;99.90;;;;;;5050774;28;19999;-71
2022/10/17 04:53:22;;;;;;;;;;;13.60;99.90;;;;;;5052112;28;20362;-72
2022/10/17 04:55:48;;;;;;;;;;;13.60;99.90;;;;;;5049811;28;19920;-72
2022/10/17 04:58:13;;;;;;;;;;;13.90;99.90;;;;;;5030730;28;19924;-72
2022/10/17 05:00:39;;;;;;;;;;;14.00;99.90;;;;;;5030745;28;19917;-72
2022/10/17 05:03:04;;;;;;;;;;;13.90;99.90;;;;;;5048280;28;19917;-72
2022/10/17 05:05:30;;;;;;;;;;;14.80;99.90;;;;;;5043476;28;20005;-72
2022/10/17 05:07:55;;;;;;;;;;;13.90;99.90;;;;;;5030849;28;19917;-72
2022/10/17 05:10:21;;;;;;;;;;;13.80;99.90;;;;;;5031695;28;20355;-72
2022/10/17 05:12:47;;;;;;;;;;;14.70;99.90;;;;;;5030944;28;20306;-72
2022/10/17 05:15:12;;;;;;;;;;;14.20;99.90;;;;;;5031729;28;20004;-72
2022/10/17 05:17:38;;;;;;;;;;;14.00;99.90;;;;;;5030695;28;20484;-72
2022/10/17 05:20:04;;;;;;;;;;;14.10;99.90;;;;;;5030978;28;19921;-72
2022/10/17 05:22:29;;;;;;;;;;;13.90;99.90;;;;;;5048797;28;19920;-72
2022/10/17 05:24:55;;;;;;;;;;;14.10;99.90;;;;;;5049848;28;19920;-72
2022/10/17 05:27:20;;;;;;;;;;;13.80;99.90;;;;;;5050311;28;19916;-72
2022/10/17 05:29:46;;;;;;;;;;;14.40;99.90;;;;;;5050120;28;19917;-71
2022/10/17 05:32:11;;;;;;;;;;;14.00;99.90;;;;;;5051849;28;19924;-72
2022/10/17 05:34:36;;;;;;;;;;;14.50;99.90;;;;;;5051423;28;19963;-72
2022/10/17 05:37:02;;;;;;;;;;;13.70;99.90;;;;;;5042418;28;19925;-72
2022/10/17 05:39:27;;;;;;;;;;;14.50;99.90;;;;;;5051862;28;19916;-72
2022/10/17 05:41:53;;;;;;;;;;;13.70;99.90;;;;;;5054871;28;19917;-72
2022/10/17 05:44:18;;;;;;;;;;;13.80;99.90;;;;;;5053816;28;19917;-72
2022/10/17 05:46:46;;;;;;;;;;;14.60;99.90;;;;;;5052397;28;19970;-71
2022/10/17 05:49:12;;;;;;;;;;;14.50;99.90;;;;;;5042995;28;19917;-71
2022/10/17 05:51:37;;;;;;;;;;;14.10;99.90;;;;;;5047210;28;19920;-72
2022/10/17 05:54:06;;;;;;;;;;;13.80;99.90;;;;;;5028967;28;20121;-73
2022/10/17 05:56:32;;;;;;;;;;;13.90;99.90;;;;;;5049160;28;19960;-72
2022/10/17 05:58:58;;;;;;;;;;;13.80;99.90;;;;;;5055331;28;19917;-73
2022/10/17 06:01:23;;;;;;;;;;;14.60;99.90;;;;;;5053809;28;19923;-73
2022/10/17 06:03:52;;;;;;;;;;;13.90;99.90;;;;;;5053650;28;19916;-72
2022/10/17 06:06:18;;;;;;;;;;;13.80;99.90;;;;;;5029277;28;19996;-72
2022/10/17 06:08:43;;;;;;;;;;;14.10;99.90;;;;;;5057636;28;19916;-73
2022/10/17 06:11:10;;;;;;;;;;;14.10;99.90;;;;;;5055251;28;19916;-72
2022/10/17 06:13:35;;;;;;;;;;;14.00;99.90;;;;;;5059056;28;19974;-73
2022/10/17 06:16:01;;;;;;;;;;;13.80;99.90;;;;;;5061624;28;19963;-72
2022/10/17 06:18:27;;;;;;;;;;;14.00;99.90;;;;;;5062762;28;19916;-72
2022/10/17 06:20:52;;;;;;;;;;;14.30;99.90;;;;;;5060928;28;19924;-72
2022/10/17 06:23:18;;;;;;;;;;;14.50;99.90;;;;;;5058492;28;19963;-72
2022/10/17 06:25:44;;;;;;;;;;;14.80;99.90;;;;;;5059849;28;20000;-73
2022/10/17 06:28:10;;;;;;;;;;;14.40;99.90;;;;;;5055179;28;19916;-73
2022/10/17 06:30:39;;;;;;;;;;;14.70;99.90;;;;;;5044153;28;20415;-71
2022/10/17 06:33:05;;;;;;;;;;;14.80;99.90;;;;;;5061501;28;19920;-71
2022/10/17 06:35:30;;;;;;;;;;;14.70;99.90;;;;;;5061491;28;19936;-71
2022/10/17 06:37:56;;;;;;;;;;;14.60;99.90;;;;;;5061617;28;19924;-74
2022/10/17 06:40:21;;;;;;;;;;;14.90;99.90;;;;;;5057717;28;19926;-71
2022/10/17 06:42:47;;;;;;;;;;;15.20;99.90;;;;;;5049243;28;20015;-71
2022/10/17 06:45:12;;;;;;;;;;;14.40;99.90;;;;;;5054378;28;19920;-72
2022/10/17 06:47:38;;;;;;;;;;;14.60;99.90;;;;;;5074997;28;19961;-72
2022/10/17 06:50:04;;;;;;;;;;;14.90;99.90;;;;;;5052726;28;20004;-72
2022/10/17 06:52:29;;;;;;;;;;;15.00;99.90;;;;;;5052919;28;19932;-72
2022/10/17 06:54:55;;;;;;;;;;;15.10;99.90;;;;;;5052748;28;19928;-72
2022/10/17 06:57:20;;;;;;;;;;;15.10;99.90;;;;;;5045269;28;19974;-72
2022/10/17 06:59:46;;;;;;;;;;;15.00;99.90;;;;;;5018512;28;19917;-71
2022/10/17 07:02:11;;;;;;;;;;;15.40;99.90;;;;;;5032962;28;19979;-70
2022/10/17 07:04:37;;;;;;;;;;;;;;;;;;5040022;28;19939;-72
2022/10/17 07:07:03;;;;;;;;;;;14.90;99.90;;;;;;5038048;28;19964;-73
2022/10/17 07:09:31;;;;;;;;;;;;;;;;;;5038640;28;20349;-71
2022/10/17 07:11:57;;;;;;;;;;;;;;;;;;5032516;28;19924;-72
2022/10/17 07:14:30;;;;;;;;;;;15.50;99.90;;;;;;5037529;28;20007;-72
2022/10/17 07:16:59;;;;;;;;;;;15.90;99.90;;;;;;5052188;28;19921;-72
2022/10/17 07:19:25;;;;;;;;;;;15.30;99.90;;;;;;5035212;28;19920;-72
2022/10/17 07:21:51;;;;;;;;;;;16.00;99.90;;;;;;5051709;28;19916;-72
2022/10/17 07:24:17;;;;;;;;;;;15.80;99.90;;;;;;5040210;28;19971;-71
2022/10/17 07:26:42;;;;;;;;;;;15.70;99.90;;;;;;5033463;28;19921;-72
2022/10/17 07:29:08;;;;;;;;;;;15.90;99.90;;;;;;5016097;28;19917;-72
2022/10/17 07:31:33;;;;;;;;;;;17.50;99.90;;;;;;5015759;28;19917;-72
2022/10/17 07:33:59;;;;;;;;;;;16.20;99.90;;;;;;5037244;28;19923;-72
2022/10/17 07:36:25;;;;;;;;;;;16.40;99.90;;;;;;5051761;28;20302;-72
2022/10/17 07:38:50;;;;;;;;;;;16.00;99.90;;;;;;5030815;28;19917;-73
2022/10/17 07:41:16;;;;;;;;;;;17.50;99.90;;;;;;5042118;28;19940;-72
2022/10/17 07:43:41;;;;;;;;;;;16.30;99.90;;;;;;5032566;28;19917;-72
2022/10/17 07:46:07;;;;;;;;;;;16.00;99.90;;;;;;5030892;28;19921;-72
2022/10/17 07:48:33;;;;;;;;;;;17.10;99.90;;;;;;5051960;28;20025;-70
2022/10/17 07:51:03;;;;;;;;;;;17.80;99.90;;;;;;5034931;28;19923;-72
2022/10/17 07:53:28;;;;;;;;;;;16.20;99.90;;;;;;5051865;28;20012;-72
2022/10/17 07:55:53;;;;;;;;;;;16.50;99.90;;;;;;5052568;28;20007;-72
2022/10/17 07:58:19;;;;;;;;;;;17.10;99.90;;;;;;5051754;28;20013;-73
2022/10/17 08:00:47;;;;;;;;;;;16.50;99.90;;;;;;5044629;28;19917;-73
2022/10/17 08:03:12;;;;;;;;;;;16.80;99.90;;;;;;5015152;28;19936;-73
2022/10/17 08:05:38;;;;;;;;;;;16.80;99.90;;;;;;5031289;28;20315;-72
2022/10/17 08:08:03;;;;;;;;;;;16.60;99.90;;;;;;5032352;28;19975;-73
2022/10/17 08:10:29;;;;;;;;;;;16.40;99.90;;;;;;5053560;28;19965;-73
2022/10/17 08:12:55;;;;;;;;;;;16.50;99.90;;;;;;5051674;28;20294;-73
2022/10/17 08:15:21;;;;;;;;;;;16.30;99.90;;;;;;5047472;28;19917;-72
2022/10/17 08:17:46;;;;;;;;;;;16.30;99.90;;;;;;5051155;28;19923;-72
2022/10/17 08:20:12;;;;;;;;;;;16.40;99.90;;;;;;5052086;28;19920;-72
2022/10/17 08:22:37;;;;;;;;;;;16.60;99.90;;;;;;5051397;28;20007;-72
2022/10/17 08:25:03;;;;;;;;;;;16.40;99.90;;;;;;5042697;28;19970;-73
2022/10/17 08:27:28;;;;;;;;;;;16.60;99.90;;;;;;5041376;28;19917;-73
2022/10/17 08:29:54;;;;;;;;;;;16.50;99.90;;;;;;5026261;28;19917;-73
2022/10/17 08:32:21;;;;;;;;;;;16.20;99.90;;;;;;5040828;28;20031;-72
2022/10/17 08:34:46;;;;;;;;;;;16.30;99.90;;;;;;5049418;28;20470;-73
2022/10/17 08:37:15;;;;;;;;;;;16.20;99.90;;;;;;5050488;28;19925;-72
2022/10/17 08:39:40;;;;;;;;;;;16.80;99.90;;;;;;5052081;28;20416;-73
2022/10/17 08:42:09;;;;;;;;;;;16.50;99.90;;;;;;5050766;28;19916;-72
2022/10/17 08:44:53;;;;;;;;;;;16.60;99.90;;;;;;5049767;28;19939;-72
2022/10/17 08:47:22;;;;;;;;;;;16.60;99.90;;;;;;5051805;28;19952;-73
2022/10/17 08:49:51;;;;;;;;;;;17.00;99.90;;;;;;5050678;28;19916;-72
2022/10/17 08:52:37;;;;;;;;;;;17.10;99.90;;;;;;5052006;28;19921;-73
2022/10/17 08:55:07;;;;;;;;;;;17.30;99.90;;;;;;5017029;28;19976;-73
2022/10/17 08:57:33;;;;;;;;;;;16.50;99.90;;;;;;5050834;28;20358;-72
2022/10/17 08:59:58;;;;;;;;;;;16.70;99.90;;;;;;5050462;28;19971;-73
2022/10/17 09:02:42;;;;;;;;;;;16.60;99.90;;;;;;5052045;28;19968;-73
2022/10/17 09:05:23;;;;;;;;;;;16.50;99.90;;;;;;5051098;28;19923;-72
2022/10/17 09:08:03;;;;;;;;;;;16.40;99.90;;;;;;5053250;28;20397;-73
2022/10/17 09:10:35;;;;;;;;;;;16.70;99.90;;;;;;5053193;28;19970;-73
2022/10/17 09:13:03;;;;;;;;;;;16.30;99.90;;;;;;5052880;28;19916;-73
2022/10/17 09:16:07;;;;;;;;;;;16.70;99.90;;;;;;5054174;28;19924;-73
2022/10/17 09:18:38;;;;;;;;;;;16.60;99.90;;;;;;4954945;29;20017;-73
2022/10/17 09:21:24;;;;;;;;;;;16.70;99.90;;;;;;4947050;28;19993;-73
2022/10/17 09:24:00;;;;;;;;;;;16.30;99.90;;;;;;5013984;28;20011;-74
2022/10/17 09:26:26;;;;;;;;;;;16.80;99.90;;;;;;5044657;28;20279;-73
2022/10/17 09:28:54;;;;;;;;;;;16.40;99.90;;;;;;5038094;28;19924;-73
2022/10/17 09:31:41;;;;;;;;;;;16.80;99.90;;;;;;5018280;28;20435;-73
2022/10/17 09:34:08;;;;;;;;;;;16.50;99.90;;;;;;5034242;28;19917;-74
2022/10/17 09:36:35;;;;;;;;;;;17.30;99.90;;;;;;5034399;28;20290;-73
2022/10/17 09:39:02;;;;;;;;;;;16.40;99.90;;;;;;5035578;28;19956;-74
2022/10/17 09:41:36;;;;;;;;;;;16.40;99.90;;;;;;5033889;28;19971;-74
2022/10/17 09:44:12;;;;;;;;;;;16.00;99.90;;;;;;5038121;28;19916;-73
2022/10/17 09:46:38;;;;;;;;;;;16.50;99.90;;;;;;5044767;28;19923;-73
2022/10/17 09:49:03;;;;;;;;;;;16.90;99.90;;;;;;5043649;28;20314;-73
2022/10/17 09:51:29;;;;;;;;;;;16.50;99.90;;;;;;5044851;28;19917;-73
2022/10/17 09:53:58;;;;;;;;;;;16.20;99.90;;;;;;5017339;28;20345;-72
2022/10/17 09:56:24;;;;;;;;;;;16.30;99.90;;;;;;5032881;28;19928;-73
2022/10/17 09:58:56;;;;;;;;;;;16.60;99.90;;;;;;5034099;28;19917;-73
2022/10/17 10:01:28;;;;;;;;;;;16.70;99.90;;;;;;5035879;28;20276;-74
2022/10/17 10:04:07;;;;;;;;;;;16.20;99.90;;;;;;5033520;28;20398;-73
2022/10/17 10:06:33;;;;;;;;;;;16.60;99.90;;;;;;5033407;28;19921;-74
2022/10/17 10:08:58;;;;;;;;;;;16.10;99.90;;;;;;5051561;28;20382;-73
2022/10/17 10:11:43;;;;;;;;;;;16.10;99.90;;;;;;5053350;28;19923;-74
2022/10/17 10:14:08;;;;;;;;;;;;;;;;;;5036090;28;19923;-74
2022/10/17 10:16:37;;;;;;;;;;;;;;;;;;5053446;28;19924;-74
2022/10/17 10:19:03;;;;;;;;;;;;;;;;;;5053475;28;19935;-74
2022/10/17 10:21:31;;;;;;;;;;;;;;;;;;5026502;28;19924;-74
2022/10/17 10:23:57;;;;;;;;;;;;;;;;;;5051969;28;19948;-74
2022/10/17 10:26:22;;;;;;;;;;;;;;;;;;5049871;28;19954;-74
2022/10/17 10:28:56;;;;;;;;;;;16.70;99.90;;;;;;5038928;28;19916;-72
2022/10/17 10:31:27;;;;;;;;;;;16.50;99.90;;;;;;5051324;28;20582;-74
2022/10/17 10:33:53;;;;;;;;;;;16.30;99.90;;;;;;5034387;28;19920;-74
2022/10/17 10:36:21;;;;;;;;;;;17.40;99.90;;;;;;5033560;28;19946;-74
2022/10/17 10:38:54;;;;;;;;;;;16.70;99.90;;;;;;5053254;28;19916;-73
2022/10/17 10:41:26;;;;;;;;;;;;;;;;;;5058658;28;20340;-74
2022/10/17 10:43:53;;;;;;;;;;;16.70;99.90;;;;;;5032676;28;20268;-73
2022/10/17 10:46:20;;;;;;;;;;;16.10;99.90;;;;;;5014594;28;19928;-74
2022/10/17 10:48:48;;;;;;;;;;;;;;;;;;5032508;28;19924;-74
2022/10/17 10:51:15;;;;;;;;;;;16.10;99.90;;;;;;5041491;28;20050;-74
2022/10/17 10:53:44;;;;;;;;;;;16.30;99.90;;;;;;5053527;28;19916;-74
2022/10/17 10:56:10;;;;;;;;;;;;;;;;;;5052083;28;19921;-75
2022/10/17 10:58:44;;;;;;;;;;;16.10;99.90;;;;;;5051724;28;20019;-74
2022/10/17 11:01:14;;;;;;;;;;;16.70;99.90;;;;;;5052442;28;19916;-74
2022/10/17 11:03:41;;;;;;;;;;;16.50;99.90;;;;;;5035181;28;19917;-74
2022/10/17 11:06:12;;;;;;;;;;;16.20;99.90;;;;;;5047009;28;19960;-74
2022/10/17 11:08:49;;;;;;;;;;;16.60;99.90;;;;;;5048742;28;19917;-74
2022/10/17 11:11:29;;;;;;;;;;;16.70;99.90;;;;;;5032046;28;19921;-74
2022/10/17 11:14:04;;;;;;;;;;;16.10;99.90;;;;;;5015718;28;19917;-73
2022/10/17 11:16:29;;;;;;;;;;;16.90;99.90;;;;;;5033253;28;19921;-74
2022/10/17 11:19:03;;;;;;;;;;;16.20;99.90;;;;;;5032651;28;20024;-74
2022/10/17 11:21:42;;;;;;;;;;;18.80;99.90;;;;;;5032232;28;20302;-74
2022/10/17 11:24:13;;;;;;;;;;;16.70;99.90;;;;;;5015715;28;20294;-74
2022/10/17 11:26:45;;;;;;;;;;;16.50;99.90;;;;;;5032468;28;19917;-74
2022/10/17 11:29:11;;;;;;;;;;;16.20;99.90;;;;;;5037422;28;20007;-74
2022/10/17 11:31:39;;;;;;;;;;;18.50;99.90;;;;;;5038598;28;19917;-74
2022/10/17 11:34:10;;;;;;;;;;;17.80;99.90;;;;;;5046525;28;19916;-73
2022/10/17 11:36:38;;;;;;;;;;;17.50;99.90;;;;;;5053397;28;19928;-74
2022/10/17 11:39:07;;;;;;;;;;;16.80;99.90;;;;;;5053003;28;19920;-73
2022/10/17 11:41:33;;;;;;;;;;;16.50;99.90;;;;;;5052091;28;19928;-73
2022/10/17 11:44:02;;;;;;;;;;;17.00;99.90;;;;;;5051585;28;19917;-72
2022/10/17 11:46:28;;;;;;;;;;;16.50;99.90;;;;;;5051814;28;20416;-73
2022/10/17 11:48:57;;;;;;;;;;;16.80;99.90;;;;;;5051983;28;20024;-75
2022/10/17 11:51:23;;;;;;;;;;;16.30;99.90;;;;;;5053039;28;19920;-73
2022/10/17 11:53:58;;;;;;;;;;;17.60;99.90;;;;;;5050732;28;19922;-73
2022/10/17 11:56:43;;;;;;;;;;;16.90;99.90;;;;;;5051385;28;20400;-72
2022/10/17 11:59:21;;;;;;;;;;;16.90;99.90;;;;;;5053239;28;19960;-73
2022/10/17 12:01:51;;;;;;;;;;;16.70;99.90;;;;;;5051327;28;19967;-72
2022/10/17 12:04:25;;;;;;;;;;;16.80;99.90;;;;;;5051121;28;20003;-72
2022/10/17 12:06:53;;;;;;;;;;;17.10;99.90;;;;;;5046082;28;19948;-72
2022/10/17 12:09:23;;;;;;;;;;;16.90;99.90;;;;;;5032562;28;19960;-73
2022/10/17 12:11:52;;;;;;;;;;;16.80;99.90;;;;;;5031308;28;19924;-73
2022/10/17 12:14:37;;;;;;;;;;;16.60;99.90;;;;;;5014575;28;20059;-72
2022/10/17 12:17:04;;;;;;;;;;;16.60;99.90;;;;;;5031040;28;19925;-73
2022/10/17 12:19:34;;;;;;;;;;;17.90;99.90;;;;;;5014920;28;20413;-72
2022/10/17 12:22:05;;;;;;;;;;;16.60;99.90;;;;;;5031181;28;20470;-73
2022/10/17 12:24:44;;;;;;;;;;;16.60;99.90;;;;;;5031060;28;19923;-73
2022/10/17 12:27:23;;;;;;;;;;;16.70;99.90;;;;;;5014777;28;19996;-73
2022/10/17 12:29:49;;;;;;;;;;;16.30;99.90;;;;;;5030901;28;20379;-73
2022/10/17 12:32:15;;;;;;;;;;;16.40;99.90;;;;;;5030668;28;19917;-73
2022/10/17 12:34:50;;;;;;;;;;;16.30;99.90;;;;;;5032111;28;19924;-73
2022/10/17 12:37:35;;;;;;;;;;;16.30;99.90;;;;;;5037773;28;20398;-74
2022/10/17 12:40:01;;;;;;;;;;;16.70;99.90;;;;;;5050579;28;19916;-74
2022/10/17 12:42:31;;;;;;;;;;;16.50;99.90;;;;;;5049160;28;19916;-74
2022/10/17 12:44:56;;;;;;;;;;;16.30;99.90;;;;;;5050912;28;20271;-74
2022/10/17 12:47:36;;;;;;;;;;;16.40;99.90;;;;;;5050602;28;19943;-74
2022/10/17 12:50:02;;;;;;;;;;;16.40;99.90;;;;;;5050741;28;20000;-75
2022/10/17 12:52:31;;;;;;;;;;;16.30;99.90;;;;;;5050427;28;19917;-74
2022/10/17 12:55:03;;;;;;;;;;;16.40;99.90;;;;;;5050254;28;20275;-74
2022/10/17 12:57:32;;;;;;;;;;;16.30;99.90;;;;;;5049991;28;19962;-72
2022/10/17 13:00:00;;;;;;;;;;;16.40;99.90;;;;;;5051990;28;19917;-73
2022/10/17 13:02:27;;;;;;;;;;;16.30;99.90;;;;;;5050681;28;19966;-74
2022/10/17 13:04:57;;;;;;;;;;;16.10;99.90;;;;;;5032688;28;19920;-74
2022/10/17 13:07:23;;;;;;;;;;;16.40;99.90;;;;;;5050589;28;19920;-74
2022/10/17 13:09:49;;;;;;;;;;;17.20;99.90;;;;;;5051306;28;19970;-74
2022/10/17 13:12:20;;;;;;;;;;;16.30;99.90;;;;;;5050977;28;19917;-74
2022/10/17 13:14:46;;;;;;;;;;;16.30;99.90;;;;;;5050163;28;19916;-74
2022/10/17 13:17:23;;;;;;;;;;;15.90;99.90;;;;;;5035722;28;19975;-74
2022/10/17 13:19:48;;;;;;;;;;;16.20;99.90;;;;;;5035095;28;19962;-74
2022/10/17 13:22:14;;;;;;;;;;;16.20;99.90;;;;;;5037750;28;20038;-74
2022/10/17 13:24:40;;;;;;;;;;;17.00;99.90;;;;;;5031789;28;20023;-74
2022/10/17 13:27:20;;;;;;;;;;;16.40;99.90;;;;;;5030734;28;19917;-74
2022/10/17 13:29:46;;;;;;;;;;;16.40;99.90;;;;;;5031888;28;19924;-74
2022/10/17 13:32:11;;;;;;;;;;;16.90;99.90;;;;;;5036787;28;19917;-74
2022/10/17 13:34:37;;;;;;;;;;;16.10;99.90;;;;;;5050322;28;19966;-74
2022/10/17 13:37:07;;;;;;;;;;;16.10;99.90;;;;;;5051285;28;20447;-74
2022/10/17 13:39:35;;;;;;;;;;;16.30;99.90;;;;;;5051651;28;20344;-74
2022/10/17 13:42:00;;;;;;;;;;;16.70;99.90;;;;;;5050595;28;19916;-74
2022/10/17 13:44:27;;;;;;;;;;;16.40;99.90;;;;;;5051291;28;20440;-74
2022/10/17 13:46:52;;;;;;;;;;;16.60;99.90;;;;;;5033930;28;19916;-74
2022/10/17 13:49:20;;;;;;;;;;;16.30;99.90;;;;;;5051160;28;19962;-74
2022/10/17 13:51:47;;;;;;;;;;;16.90;99.90;;;;;;5037204;28;19952;-73
2022/10/17 13:54:28;;;;;;;;;;;17.00;99.90;;;;;;5033539;28;19921;-74
2022/10/17 13:56:55;;;;;;;;;;;16.20;99.90;;;;;;5031713;28;19951;-75
2022/10/17 13:59:22;;;;;;;;;;;16.30;99.90;;;;;;5031705;28;19967;-74
2022/10/17 14:01:48;;;;;;;;;;;16.70;99.90;;;;;;5022877;28;19964;-74
2022/10/17 14:04:14;;;;;;;;;;;17.40;99.90;;;;;;5038178;28;19974;-74
2022/10/17 14:06:43;;;;;;;;;;;17.10;99.90;;;;;;5055009;28;19917;-73
2022/10/17 14:09:18;;;;;;;;;;;16.30;99.90;;;;;;5037372;28;20287;-74
2022/10/17 14:11:55;;;;;;;;;;;16.60;99.90;;;;;;5055795;28;19939;-74
2022/10/17 14:14:23;;;;;;;;;;;16.30;99.90;;;;;;5055410;28;20278;-74
2022/10/17 14:16:48;;;;;;;;;;;16.00;99.90;;;;;;5039639;28;19925;-74
2022/10/17 14:19:25;;;;;;;;;;;16.90;99.90;;;;;;5057327;28;19920;-74
2022/10/17 14:21:55;;;;;;;;;;;16.40;99.90;;;;;;5045272;28;19924;-74
2022/10/17 14:24:21;;;;;;;;;;;16.40;99.90;;;;;;5043113;28;19968;-74
2022/10/17 14:26:50;;;;;;;;;;;16.40;99.90;;;;;;5039056;28;20243;-74
2022/10/17 14:29:21;;;;;;;;;;;16.30;99.90;;;;;;5042343;28;19921;-73